メインページ
METAR-TAF:

METAR-TAF

空港 :

ナッソー, バハマ

リンデン・ピンドリング国際空港

緯度: 25-03N, 経度: 077-28W, 海抜: 3m

現時点の気象観測

当レポートは1時間5分前の11:00(UTC)に作成
東/北東の風 12kt、最大22ktの突風を伴う
気温 23°C
湿度 57%
気圧 1023 hPa
視程10km以上
高度1200ftの雲はほとんどない, 積乱雲.
高度1500ftの雲は散在している
高度22000ftの千切れ雲あり
近辺でにわか雨

METAR: MYNN 241100Z 06012G22KT 9999 VCSH FEW012CB SCT015 BKN220 23/14 A3022 RMK CB/VCSH/S

時間: 08:05 (12:05 UTC)

予報

当レポートは1時間5分前の11:00(UTC)に作成
予報は24日の 12時(UTC)から 25日の 12時(UTC)まで有効
の風 18kt、最大30ktの突風を伴う
視程10km以上
高度1600ftの雲はほとんどない, 積乱雲.
高度1800ftの雲は散在している
高度10000ftの千切れ雲あり
高度1800ftの雲はほとんどない
高度4500ftの雲は散在している
高度12000ftの千切れ雲あり

TAF: MYNN 241100Z 2412/2512 06020G30KT 9999 FEW016CB SCT018 BKN100 2418/2420 08018KT FEW018 SCT045 BKN120

4,000以上の空港の気象観測と天気予報(METAR報とTAF報)

利用可能な観測所は地図上に黄色い丸と赤い丸で示す。

丸の上にカーソルを重ねると観測所名を参照できる。

次にクリックすると気象観測と天気予報を参照できる。

マップの切り替え:黒色「×」印の緑ボタンをクリックして拡大、「-」印の緑ボタンをクリックして縮小、緑色の三角印をクリックして隣りの地図に切り替え


METAR-TAF: